createdAt,value
2023-02-02T00:05:22.715Z,1.70
2023-02-02T00:11:26.022Z,1.60
2023-02-02T00:17:29.092Z,1.60
2023-02-02T00:23:31.423Z,1.60
2023-02-02T00:29:33.705Z,1.80
2023-02-02T00:35:35.970Z,2.00
2023-02-02T00:41:38.902Z,2.00
2023-02-02T00:47:41.216Z,2.00
2023-02-02T00:53:43.441Z,1.90
2023-02-02T00:59:46.530Z,1.80
2023-02-02T01:05:50.664Z,1.60
2023-02-02T01:11:53.013Z,1.40
2023-02-02T01:17:55.403Z,1.20
2023-02-02T01:23:57.725Z,1.10
2023-02-02T01:30:00.137Z,1.20
2023-02-02T01:36:12.139Z,1.20
2023-02-02T01:42:20.790Z,1.10
2023-02-02T01:48:30.135Z,0.90
2023-02-02T01:54:35.930Z,1.00
2023-02-02T02:00:41.462Z,1.20
2023-02-02T02:06:45.722Z,1.50
2023-02-02T02:12:49.114Z,1.50
2023-02-02T02:19:10.314Z,1.70
2023-02-02T02:25:56.442Z,1.70
2023-02-02T02:32:36.003Z,1.70
2023-02-02T02:38:42.979Z,1.80
2023-02-02T02:44:47.425Z,1.70
2023-02-02T02:50:50.445Z,1.80
2023-02-02T02:57:12.124Z,1.90
2023-02-02T03:03:45.123Z,1.80
2023-02-02T03:09:49.370Z,1.70
2023-02-02T03:15:51.797Z,1.70
2023-02-02T03:21:54.571Z,1.60
2023-02-02T03:27:56.811Z,1.50
2023-02-02T03:33:59.293Z,1.40
2023-02-02T03:40:01.615Z,1.40
2023-02-02T03:46:05.749Z,1.40
2023-02-02T03:52:08.374Z,1.30
2023-02-02T03:58:10.632Z,1.20
2023-02-02T04:04:13.059Z,1.20
2023-02-02T04:10:15.123Z,1.30
2023-02-02T04:16:17.845Z,1.30
2023-02-02T04:22:20.282Z,1.40
2023-02-02T04:28:24.177Z,1.50
2023-02-02T04:34:26.635Z,1.60
2023-02-02T04:40:28.808Z,1.60
2023-02-02T04:46:32.793Z,1.70
2023-02-02T04:52:35.531Z,1.70
2023-02-02T04:58:37.805Z,1.70
2023-02-02T05:04:40.202Z,1.60
2023-02-02T05:10:42.968Z,1.40
2023-02-02T05:16:45.418Z,1.20
2023-02-02T05:22:50.365Z,1.10
2023-02-02T05:28:53.212Z,1.10
2023-02-02T05:34:56.055Z,1.10
2023-02-02T05:40:58.282Z,1.20
2023-02-02T05:47:00.535Z,1.30
2023-02-02T05:53:03.365Z,1.50
2023-02-02T05:59:07.802Z,1.60
2023-02-02T06:05:10.278Z,1.70
2023-02-02T06:11:16.091Z,1.90
2023-02-02T06:17:18.375Z,2.00
2023-02-02T06:23:20.906Z,2.10
2023-02-02T06:29:23.462Z,2.20
2023-02-02T06:35:25.849Z,2.30
2023-02-02T06:41:28.350Z,2.40
2023-02-02T06:47:33.209Z,2.50
2023-02-02T06:53:35.814Z,2.60
2023-02-02T06:59:38.529Z,2.80
2023-02-02T07:05:40.911Z,3.10
2023-02-02T07:11:45.480Z,3.50
2023-02-02T07:17:47.827Z,4.10
2023-02-02T07:23:50.768Z,4.40
2023-02-02T07:29:53.454Z,4.60
2023-02-02T07:35:55.692Z,4.50
2023-02-02T07:41:57.894Z,4.60
2023-02-02T07:48:09.483Z,11.20
2023-02-02T07:54:11.768Z,15.20
2023-02-02T08:00:17.468Z,16.70
2023-02-02T08:06:23.022Z,16.90
2023-02-02T08:12:27.107Z,16.30
2023-02-02T08:18:29.304Z,16.50
2023-02-02T08:24:31.426Z,17.90
2023-02-02T08:30:35.715Z,17.60
2023-02-02T08:36:38.187Z,15.30
2023-02-02T08:42:40.315Z,15.20
2023-02-02T08:48:42.803Z,12.00
2023-02-02T08:54:46.468Z,10.30
2023-02-02T09:00:48.628Z,9.80
2023-02-02T09:06:51.102Z,9.10
2023-02-02T09:12:53.348Z,7.80
2023-02-02T09:18:57.114Z,6.90
2023-02-02T09:24:59.684Z,6.70
2023-02-02T09:31:02.972Z,6.60
2023-02-02T09:37:05.304Z,7.20
2023-02-02T09:43:42.827Z,7.10
2023-02-02T09:49:53.980Z,7.60
2023-02-02T09:56:02.012Z,7.80
2023-02-02T10:02:17.137Z,8.20
2023-02-02T10:08:34.946Z,8.20
2023-02-02T10:14:45.231Z,7.80
2023-02-02T10:21:07.812Z,7.60
2023-02-02T10:27:15.896Z,7.50
2023-02-02T10:33:37.036Z,7.40
2023-02-02T10:39:51.342Z,7.40
2023-02-02T10:45:54.643Z,7.30
2023-02-02T10:52:11.857Z,6.90
2023-02-02T10:58:14.045Z,6.60
2023-02-02T11:04:35.997Z,6.40
2023-02-02T11:10:38.402Z,6.30
2023-02-02T11:16:44.407Z,6.20
2023-02-02T11:22:46.832Z,6.10
2023-02-02T11:28:51.223Z,6.30
2023-02-02T11:35:08.620Z,6.20
2023-02-02T11:41:13.996Z,6.10
2023-02-02T11:47:22.505Z,6.10
2023-02-02T11:53:47.963Z,6.00
2023-02-02T11:59:52.245Z,6.30
2023-02-02T12:05:55.018Z,6.50
2023-02-02T12:11:57.546Z,6.40
2023-02-02T12:18:14.907Z,6.30
2023-02-02T12:24:26.148Z,6.50
2023-02-02T12:30:43.991Z,6.70
2023-02-02T12:37:10.701Z,6.80
2023-02-02T12:43:33.663Z,7.10
2023-02-02T12:50:02.989Z,7.30
2023-02-02T12:56:31.657Z,7.00
2023-02-02T13:03:03.011Z,6.90
2023-02-02T13:09:21.413Z,7.00
2023-02-02T13:15:30.039Z,7.00
2023-02-02T13:21:35.153Z,6.80
2023-02-02T13:27:39.335Z,6.90
2023-02-02T13:33:44.006Z,6.60
2023-02-02T13:39:54.593Z,6.50
2023-02-02T13:46:05.897Z,6.30
2023-02-02T13:52:46.449Z,6.20
2023-02-02T13:59:02.371Z,6.00
2023-02-02T14:05:07.383Z,6.00
2023-02-02T14:11:19.414Z,6.00
2023-02-02T14:17:42.601Z,5.90
2023-02-02T14:23:54.301Z,5.90
2023-02-02T14:29:56.511Z,5.80
2023-02-02T14:36:03.929Z,5.60
2023-02-02T14:42:41.101Z,5.40
2023-02-02T14:49:07.339Z,5.30
2023-02-02T14:55:21.623Z,5.20
2023-02-02T15:01:27.706Z,5.00
2023-02-02T15:07:33.387Z,5.00
2023-02-02T15:13:37.948Z,4.90
2023-02-02T15:19:45.467Z,4.70
2023-02-02T15:25:52.657Z,4.70
2023-02-02T15:31:56.150Z,4.60
2023-02-02T15:38:01.656Z,4.50
2023-02-02T15:44:20.305Z,4.40
2023-02-02T15:50:23.012Z,4.30
2023-02-02T15:56:25.110Z,4.20
2023-02-02T16:02:46.424Z,4.10
2023-02-02T16:08:50.054Z,4.00
2023-02-02T16:14:54.845Z,4.00
2023-02-02T16:21:01.139Z,4.00
2023-02-02T16:27:06.919Z,4.00
2023-02-02T16:33:30.545Z,4.00
2023-02-02T16:39:33.215Z,4.00
2023-02-02T16:45:39.965Z,4.00
2023-02-02T16:51:42.196Z,3.90
2023-02-02T16:57:47.426Z,3.90
2023-02-02T17:03:55.638Z,3.80
2023-02-02T17:10:21.447Z,3.90
2023-02-02T17:16:25.034Z,3.80
2023-02-02T17:22:30.465Z,3.90
2023-02-02T17:28:32.809Z,3.90
2023-02-02T17:34:35.115Z,3.90
2023-02-02T17:40:37.612Z,3.90
2023-02-02T17:46:40.328Z,3.90
2023-02-02T17:52:43.692Z,3.80
2023-02-02T17:58:45.913Z,3.70
2023-02-02T18:04:48.293Z,3.70
2023-02-02T18:10:50.743Z,3.60
2023-02-02T18:16:52.987Z,3.40
2023-02-02T18:22:55.262Z,3.30
2023-02-02T18:28:57.533Z,3.20
2023-02-02T18:34:59.763Z,3.20
2023-02-02T18:41:03.885Z,3.10
2023-02-02T18:47:06.771Z,3.10
2023-02-02T18:53:11.815Z,3.10
2023-02-02T18:59:14.270Z,3.10
2023-02-02T19:05:35.079Z,3.10
2023-02-02T19:11:44.201Z,3.10
2023-02-02T19:17:54.847Z,3.00
2023-02-02T19:23:57.448Z,3.00
2023-02-02T19:30:03.922Z,2.90
2023-02-02T19:36:17.662Z,2.90
2023-02-02T19:42:20.408Z,2.80
2023-02-02T19:48:28.092Z,2.70
2023-02-02T19:54:42.690Z,2.80
2023-02-02T20:00:47.176Z,2.70
2023-02-02T20:06:59.135Z,2.70
2023-02-02T20:13:01.706Z,2.60
2023-02-02T20:19:03.890Z,2.60
2023-02-02T20:25:09.274Z,2.60
2023-02-02T20:31:19.032Z,2.50
2023-02-02T20:37:27.142Z,2.40
2023-02-02T20:43:29.741Z,2.30
2023-02-02T20:49:32.134Z,2.30
2023-02-02T20:55:36.444Z,2.20
2023-02-02T21:01:39.265Z,2.20
2023-02-02T21:07:41.607Z,2.10
2023-02-02T21:13:43.737Z,2.00
2023-02-02T21:19:46.255Z,1.90
2023-02-02T21:25:48.635Z,1.90
2023-02-02T21:31:50.721Z,1.70
2023-02-02T21:37:57.251Z,1.70
2023-02-02T21:43:59.925Z,1.70
2023-02-02T21:50:14.487Z,1.70
2023-02-02T21:56:42.854Z,1.60
2023-02-02T22:02:49.303Z,1.60
2023-02-02T22:08:53.689Z,1.50
2023-02-02T22:15:01.238Z,1.60
2023-02-02T22:21:06.138Z,1.50
2023-02-02T22:27:19.331Z,1.40
2023-02-02T22:33:23.125Z,1.40
2023-02-02T22:39:25.438Z,1.50
2023-02-02T22:45:27.583Z,1.40
2023-02-02T22:51:29.685Z,1.30
2023-02-02T22:57:31.886Z,1.40
2023-02-02T23:03:33.935Z,1.30
2023-02-02T23:09:36.258Z,1.20
2023-02-02T23:15:38.745Z,1.20
2023-02-02T23:21:41.027Z,1.10
2023-02-02T23:27:43.656Z,1.10
2023-02-02T23:33:46.037Z,1.10
2023-02-02T23:39:48.088Z,1.10
2023-02-02T23:45:51.084Z,1.00
2023-02-02T23:51:53.250Z,1.00
2023-02-02T23:57:56.427Z,0.90
